Weather at Epsilon Airport

Public forecast

Using degrees Celsius for public forecast. Weather courtesy of forecast.io.

Closest aviation weather report (METAR) to Epsilon Airport

Closest report is Birdsville Airport, 174.1 nm (322.5 km) NW. Retrieved 2021/06/19 21:00 UTC (55 minutes ago):

YBDV 192100Z AUTO 17006KT //// // ////// 10/06 Q1023

Closest aviation forecast (TAF) to Epsilon Airport

Forecast is more than 12 hours old.

Closest forecast is Woomera Airfield, 285.9 nm (529.4 km) SW. Retrieved 2021/06/19 06:00 UTC (16 hours ago):

TAF YPWR 190529Z 1906/2000 17010KT 9999 BKN040 FM191600 13008KT 9999 FEW008 SCT045 FM192000 09005KT 9999 SCT005 SCT045 PROB30 1920/2000 0300 FG BKN001